Time;durP1;ratioP1;P1;durP2;ratioP2;P2;SDS_P1;SDS_P2;PMS_P1;PMS_P2;Temp;Humidity;BMP_temperature;BMP_pressure;BME280_temperature;BME280_humidity;BME280_pressure;Samples;Min_cycle;Max_cycle;Signal;HPM_P1;HPM_P2
2022/12/29 00:03:54;;;;;;;2.22;0.80;;;9.40;99.90;;;;;;12593142;28;20045;-85
2022/12/29 00:09:56;;;;;;;1.83;0.80;;;9.60;99.90;;;;;;12586684;28;20051;-86
2022/12/29 00:15:57;;;;;;;1.85;0.75;;;9.60;99.90;;;;;;12596537;28;20044;-85
2022/12/29 00:47:21;;;;;;;2.28;1.05;;;9.60;99.90;;;;;;12585488;28;20044;-86
2022/12/29 00:53:23;;;;;;;2.53;1.08;;;9.60;99.90;;;;;;12560377;28;20170;-86
2022/12/29 00:59:25;;;;;;;1.67;0.90;;;9.60;99.90;;;;;;12573683;28;20052;-86
2022/12/29 01:05:27;;;;;;;2.58;0.70;;;9.60;99.90;;;;;;12566632;28;20067;-86
2022/12/29 01:11:29;;;;;;;2.10;0.90;;;9.70;99.90;;;;;;12584546;28;20090;-86
2022/12/29 01:17:31;;;;;;;2.88;0.70;;;9.70;99.90;;;;;;12586247;28;20097;-86
2022/12/29 01:23:32;;;;;;;1.83;0.80;;;9.70;99.90;;;;;;12572645;28;20036;-85
2022/12/29 01:29:35;;;;;;;1.15;0.60;;;9.90;99.90;;;;;;12590855;28;20060;-85
2022/12/29 01:35:37;;;;;;;3.05;0.50;;;9.90;99.90;;;;;;12586409;28;20561;-85
2022/12/29 01:41:38;;;;;;;1.90;0.70;;;9.90;99.90;;;;;;12573371;28;20051;-85
2022/12/29 01:47:43;;;;;;;1.05;0.60;;;9.90;99.90;;;;;;12567019;28;20068;-86
2022/12/29 01:53:45;;;;;;;1.75;0.68;;;9.90;99.90;;;;;;12567013;28;20048;-86
2022/12/29 01:59:55;;;;;;;3.00;0.70;;;9.90;99.90;;;;;;12568102;28;20087;-86
2022/12/29 02:06:04;;;;;;;0.88;0.40;;;9.90;99.90;;;;;;12583438;28;20097;-85
2022/12/29 02:12:06;;;;;;;2.40;0.45;;;10.00;99.90;;;;;;12565961;28;20055;-85
2022/12/29 02:18:39;;;;;;;0.65;0.47;;;9.90;99.90;;;;;;12585260;28;20076;-85
2022/12/29 02:24:44;;;;;;;0.73;0.40;;;10.00;99.90;;;;;;12571838;28;20040;-84
2022/12/29 02:30:52;;;;;;;;;;;10.10;99.90;;;;;;12572492;28;20033;-86
2022/12/29 02:37:06;;;;;;;0.75;0.40;;;9.80;99.90;;;;;;12531498;28;20369;-85
2022/12/29 02:43:27;;;;;;;1.02;0.50;;;9.70;99.90;;;;;;12522838;28;20109;-85
2022/12/29 02:49:54;;;;;;;0.98;0.50;;;9.70;99.90;;;;;;12556510;28;20048;-86
2022/12/29 02:55:55;;;;;;;0.68;0.40;;;9.70;99.90;;;;;;12554447;28;20041;-86
2022/12/29 03:02:17;;;;;;;0.52;0.38;;;9.80;99.90;;;;;;12550745;28;20049;-86
2022/12/29 03:08:31;;;;;;;1.23;0.40;;;9.90;99.90;;;;;;12551013;28;20143;-86
2022/12/29 03:21:03;;;;;;;0.47;0.30;;;10.10;99.90;;;;;;12545722;28;20049;-86
2022/12/29 03:27:13;;;;;;;0.35;0.22;;;10.20;99.90;;;;;;12546115;28;20053;-86
2022/12/29 03:33:19;;;;;;;0.70;0.40;;;10.30;99.90;;;;;;12579372;28;20053;-86
2022/12/29 03:39:23;;;;;;;0.45;0.20;;;10.40;99.90;;;;;;12600324;28;20131;-86
2022/12/29 03:45:25;;;;;;;;;;;10.50;99.90;;;;;;12603452;28;20043;-87
2022/12/29 03:51:27;;;;;;;0.75;0.40;;;10.50;99.90;;;;;;12595816;28;19927;-86
2022/12/29 03:57:28;;;;;;;0.63;0.30;;;10.60;99.90;;;;;;12603573;28;20045;-86
2022/12/29 04:03:30;;;;;;;0.63;0.20;;;10.60;99.90;;;;;;12602636;28;20519;-86
2022/12/29 04:09:32;;;;;;;0.73;0.30;;;10.70;99.90;;;;;;12570379;28;20080;-86
2022/12/29 04:15:35;;;;;;;1.30;0.38;;;10.70;99.90;;;;;;12591434;28;20060;-87
2022/12/29 04:21:36;;;;;;;1.60;0.40;;;10.60;99.90;;;;;;12577273;28;20048;-85
2022/12/29 04:27:38;;;;;;;0.95;0.30;;;10.70;99.90;;;;;;12564231;28;20045;-86
2022/12/29 04:33:40;;;;;;;1.15;0.40;;;10.60;99.90;;;;;;12565957;28;20090;-87
2022/12/29 04:39:42;;;;;;;0.43;0.30;;;10.70;99.90;;;;;;12596894;28;20381;-86
2022/12/29 04:45:47;;;;;;;1.00;0.43;;;10.70;99.90;;;;;;12573764;28;20059;-87
2022/12/29 04:51:49;;;;;;;1.42;0.40;;;10.70;99.90;;;;;;12575502;28;20048;-86
2022/12/29 04:57:50;;;;;;;2.72;0.50;;;10.50;99.90;;;;;;12586543;28;20048;-86
2022/12/29 05:03:52;;;;;;;1.25;0.43;;;10.30;99.90;;;;;;12590037;28;20044;-87
2022/12/29 05:09:54;;;;;;;1.58;0.50;;;9.90;99.90;;;;;;12586511;28;20327;-86
2022/12/29 05:15:56;;;;;;;1.63;0.60;;;9.60;99.90;;;;;;12564488;28;20048;-87
2022/12/29 05:21:58;;;;;;;1.35;0.50;;;9.50;99.90;;;;;;12570694;28;20171;-87
2022/12/29 05:28:00;;;;;;;0.82;0.50;;;9.50;99.90;;;;;;12584133;28;20041;-87
2022/12/29 05:34:02;;;;;;;6.07;0.80;;;9.40;99.90;;;;;;12533995;28;20045;-86
2022/12/29 05:40:06;;;;;;;2.93;0.70;;;9.50;99.90;;;;;;12556255;28;20075;-86
2022/12/29 05:46:08;;;;;;;1.77;0.47;;;9.50;99.90;;;;;;12533461;28;20136;-87
2022/12/29 05:52:09;;;;;;;0.80;0.40;;;9.50;99.90;;;;;;12532298;28;20073;-86
2022/12/29 05:58:11;;;;;;;1.10;0.30;;;9.70;99.90;;;;;;12552009;28;20073;-86
2022/12/29 06:04:14;;;;;;;0.45;0.30;;;9.70;99.90;;;;;;12552778;28;20049;-86
2022/12/29 06:10:16;;;;;;;1.70;0.52;;;9.80;99.90;;;;;;12526175;28;20147;-86
2022/12/29 06:16:18;;;;;;;0.70;0.32;;;9.90;99.90;;;;;;12539658;28;20136;-87
2022/12/29 06:22:20;;;;;;;2.38;0.55;;;10.10;99.90;;;;;;12521662;28;20501;-87
2022/12/29 06:28:21;;;;;;;0.70;0.47;;;10.30;99.90;;;;;;12546474;28;20049;-86
2022/12/29 06:34:26;;;;;;;2.28;0.45;;;10.30;99.90;;;;;;12566402;28;20048;-88
2022/12/29 06:40:28;;;;;;;2.13;0.30;;;9.80;99.90;;;;;;12566618;28;20048;-88
2022/12/29 06:46:30;;;;;;;0.32;0.20;;;9.50;99.90;;;;;;12580161;28;20049;-87
2022/12/29 06:52:32;;;;;;;1.13;0.30;;;9.30;99.90;;;;;;12591342;28;20048;-86
2022/12/29 06:58:34;;;;;;;3.05;0.30;;;9.10;99.90;;;;;;12569393;28;20083;-88
2022/12/29 07:04:36;;;;;;;1.55;0.28;;;9.00;99.90;;;;;;12562856;28;20048;-87
2022/12/29 07:10:38;;;;;;;1.17;0.40;;;8.80;99.90;;;;;;12575258;28;21183;-87
2022/12/29 07:16:39;;;;;;;0.52;0.30;;;8.70;99.90;;;;;;12589611;28;20053;-87
2022/12/29 07:22:42;;;;;;;3.75;0.50;;;8.60;99.90;;;;;;12577758;28;20052;-87
2022/12/29 07:28:44;;;;;;;1.27;0.57;;;8.60;99.90;;;;;;12575831;28;20049;-87
2022/12/29 07:34:47;;;;;;;2.28;0.70;;;8.60;99.90;;;;;;12556123;28;20501;-87
2022/12/29 07:40:49;;;;;;;2.92;0.60;;;8.60;99.90;;;;;;12588112;28;20055;-86
2022/12/29 07:46:50;;;;;;;7.20;0.75;;;8.70;99.90;;;;;;12594944;28;20139;-87
2022/12/29 07:52:57;;;;;;;4.18;0.80;;;8.90;99.90;;;;;;12586623;28;20044;-87
2022/12/29 07:58:59;;;;;;;4.53;1.20;;;9.10;99.90;;;;;;12576896;28;20549;-87
2022/12/29 08:05:01;;;;;;;3.95;0.88;;;9.20;99.90;;;;;;12578731;28;20565;-87
2022/12/29 08:11:05;;;;;;;2.72;0.70;;;9.30;99.90;;;;;;12577636;28;20428;-86
2022/12/29 08:17:07;;;;;;;6.00;0.90;;;9.20;99.90;;;;;;12591304;28;20040;-86
2022/12/29 08:23:09;;;;;;;6.18;1.00;;;9.10;99.90;;;;;;12581463;28;20045;-86
2022/12/29 08:29:11;;;;;;;2.72;0.68;;;8.90;99.90;;;;;;12572996;28;20097;-87
2022/12/29 08:35:13;;;;;;;3.88;0.80;;;8.90;99.90;;;;;;12578688;28;20041;-87
2022/12/29 08:41:18;;;;;;;3.25;0.70;;;9.20;99.90;;;;;;12577875;28;20052;-86
2022/12/29 08:47:19;;;;;;;2.05;0.57;;;9.40;99.90;;;;;;12580596;28;20060;-86
2022/12/29 08:53:21;;;;;;;4.05;0.75;;;9.50;99.90;;;;;;12538720;28;20063;-86
2022/12/29 08:59:23;;;;;;;5.13;0.82;;;9.40;99.90;;;;;;12569448;28;20075;-86
2022/12/29 09:05:25;;;;;;;3.60;0.80;;;9.40;99.90;;;;;;12580309;28;20112;-86
2022/12/29 09:11:27;;;;;;;3.72;0.93;;;9.30;99.90;;;;;;12572422;28;20044;-86
2022/12/29 09:17:40;;;;;;;4.07;0.90;;;9.30;99.90;;;;;;12583784;28;20553;-86
2022/12/29 09:23:42;;;;;;;4.20;0.65;;;9.50;99.90;;;;;;12584746;28;20512;-87
2022/12/29 09:29:44;;;;;;;2.58;0.77;;;9.40;99.90;;;;;;12570377;28;20702;-87
2022/12/29 09:35:52;;;;;;;2.90;0.80;;;9.50;99.90;;;;;;12580110;28;20044;-87
2022/12/29 09:42:27;;;;;;;3.53;0.95;;;9.70;99.90;;;;;;12582191;28;20056;-87
2022/12/29 09:48:37;;;;;;;3.65;1.00;;;9.90;99.90;;;;;;12550137;28;20176;-87
2022/12/29 09:54:57;;;;;;;4.55;1.00;;;10.00;99.90;;;;;;12583129;28;20070;-87
2022/12/29 10:01:33;;;;;;;4.18;0.80;;;10.00;99.90;;;;;;12581360;28;20040;-88
2022/12/29 10:07:47;;;;;;;3.70;0.93;;;10.00;99.90;;;;;;12583786;28;20071;-87
2022/12/29 10:14:19;;;;;;;7.38;1.40;;;10.10;99.90;;;;;;12552371;28;20051;-86
2022/12/29 10:20:52;;;;;;;2.67;0.88;;;10.00;99.90;;;;;;12558195;28;20051;-88
2022/12/29 10:26:57;;;;;;;3.55;0.90;;;10.20;99.90;;;;;;12558841;28;20045;-87
2022/12/29 10:33:04;;;;;;;4.05;0.82;;;10.00;99.90;;;;;;12573319;28;20041;-87
2022/12/29 10:39:13;;;;;;;5.03;1.00;;;9.90;99.90;;;;;;12564675;28;20055;-86
2022/12/29 10:45:18;;;;;;;5.25;1.05;;;9.90;99.90;;;;;;12580185;28;20046;-87
2022/12/29 10:51:31;;;;;;;2.90;0.98;;;10.00;99.90;;;;;;12578776;28;20053;-88
2022/12/29 10:57:39;;;;;;;5.93;0.95;;;10.00;99.90;;;;;;12578270;28;20055;-87
2022/12/29 11:04:05;;;;;;;5.93;1.17;;;10.00;99.90;;;;;;12563644;28;20047;-86
2022/12/29 11:10:40;;;;;;;7.32;1.08;;;10.20;99.90;;;;;;12570149;28;20090;-87
2022/12/29 11:16:44;;;;;;;6.95;1.00;;;10.40;99.90;;;;;;12589237;28;20044;-87
2022/12/29 11:22:46;;;;;;;5.13;1.00;;;10.40;99.90;;;;;;12571685;28;20055;-86
2022/12/29 11:29:08;;;;;;;5.10;1.38;;;10.40;99.90;;;;;;12587629;28;20052;-87
2022/12/29 11:35:36;;;;;;;5.60;0.90;;;10.40;99.90;;;;;;12546961;28;20048;-87
2022/12/29 11:41:38;;;;;;;4.20;1.08;;;10.40;99.90;;;;;;12579019;28;20079;-87
2022/12/29 11:47:45;;;;;;;8.13;1.30;;;10.20;99.90;;;;;;12588016;28;20045;-86
2022/12/29 11:53:52;;;;;;;7.32;1.10;;;10.30;99.90;;;;;;12591407;28;20052;-86
2022/12/29 11:59:57;;;;;;;5.88;1.00;;;10.30;99.90;;;;;;12580529;28;20048;-87
2022/12/29 12:06:02;;;;;;;6.65;1.00;;;10.30;99.90;;;;;;12571280;28;20045;-87
2022/12/29 12:12:08;;;;;;;8.82;0.82;;;10.30;99.90;;;;;;12592820;28;20097;-85
2022/12/29 12:18:23;;;;;;;4.90;1.00;;;10.30;99.90;;;;;;12565736;28;20462;-87
2022/12/29 12:24:34;;;;;;;3.35;0.82;;;10.30;99.90;;;;;;12561775;28;20044;-87
2022/12/29 12:30:44;;;;;;;4.65;1.30;;;10.30;99.90;;;;;;12584323;28;20064;-87
2022/12/29 12:37:04;;;;;;;3.03;0.80;;;10.40;99.90;;;;;;12592935;28;20055;-87
2022/12/29 12:43:40;;;;;;;3.45;0.75;;;10.40;99.90;;;;;;12570734;28;20048;-87
2022/12/29 12:49:58;;;;;;;3.85;0.77;;;10.40;99.90;;;;;;12567738;28;20051;-86
2022/12/29 12:56:08;;;;;;;5.90;1.10;;;10.40;99.90;;;;;;12594638;28;20419;-87
2022/12/29 13:02:37;;;;;;;4.47;1.10;;;10.40;99.90;;;;;;12579446;28;20131;-87
2022/12/29 13:09:12;;;;;;;4.60;1.15;;;10.50;99.90;;;;;;12565288;28;20048;-87
2022/12/29 13:15:37;;;;;;;4.38;0.80;;;10.40;99.90;;;;;;12579650;28;20123;-86
2022/12/29 13:22:07;;;;;;;5.22;1.17;;;10.40;99.90;;;;;;12568400;28;20420;-86
2022/12/29 13:28:27;;;;;;;8.02;1.15;;;10.40;99.90;;;;;;12570831;28;20237;-86
2022/12/29 13:34:38;;;;;;;8.68;1.27;;;10.40;99.90;;;;;;12565372;28;20071;-85
2022/12/29 13:40:45;;;;;;;5.78;0.98;;;10.30;99.90;;;;;;12582400;28;20553;-85
2022/12/29 13:46:48;;;;;;;6.03;1.23;;;10.30;99.90;;;;;;12586380;28;20488;-85
2022/12/29 13:53:06;;;;;;;4.87;1.23;;;10.30;99.90;;;;;;12585835;28;20453;-86
2022/12/29 13:59:26;;;;;;;5.65;1.23;;;10.30;99.90;;;;;;12585917;28;20052;-85
2022/12/29 14:05:30;;;;;;;4.82;1.20;;;10.20;99.90;;;;;;12555567;28;20041;-86
2022/12/29 14:11:35;;;;;;;6.50;1.17;;;10.20;99.90;;;;;;12586322;28;20405;-87
2022/12/29 14:17:38;;;;;;;;;;;10.20;99.90;;;;;;12578805;28;20045;-86
2022/12/29 14:23:43;;;;;;;3.88;0.85;;;10.10;99.90;;;;;;12582566;28;19969;-86
2022/12/29 14:29:49;;;;;;;10.88;2.10;;;10.20;99.90;;;;;;12569005;28;20044;-85
2022/12/29 14:35:52;;;;;;;5.97;1.20;;;10.10;99.90;;;;;;12565312;28;20036;-85
2022/12/29 14:42:08;;;;;;;6.97;1.00;;;10.10;99.90;;;;;;12582960;28;20071;-85
2022/12/29 14:48:31;;;;;;;5.63;1.48;;;10.00;99.90;;;;;;12568255;28;20059;-86
2022/12/29 14:54:33;;;;;;;7.10;1.20;;;9.80;99.90;;;;;;12569603;28;20048;-86
2022/12/29 15:00:36;;;;;;;6.40;1.23;;;9.80;99.90;;;;;;12578859;28;20051;-85
2022/12/29 15:06:41;;;;;;;4.78;1.15;;;9.70;99.90;;;;;;12582546;28;20049;-86
2022/12/29 15:12:52;;;;;;;9.27;1.77;;;9.60;99.90;;;;;;12584645;28;20435;-85
2022/12/29 15:18:55;;;;;;;6.88;1.00;;;9.70;99.90;;;;;;12559293;28;20527;-85
2022/12/29 15:24:57;;;;;;;12.18;1.75;;;9.50;99.90;;;;;;12566633;28;20485;-85
2022/12/29 15:31:05;;;;;;;6.80;1.63;;;9.30;99.90;;;;;;12556801;28;20049;-85
2022/12/29 15:37:08;;;;;;;5.05;1.40;;;9.10;99.90;;;;;;12567286;28;20053;-85
2022/12/29 15:43:34;;;;;;;8.85;1.55;;;9.00;99.90;;;;;;12581877;28;20067;-85
2022/12/29 15:49:36;;;;;;;5.90;1.42;;;9.00;99.90;;;;;;12561909;28;20097;-85
2022/12/29 15:55:41;;;;;;;7.95;1.50;;;9.00;99.90;;;;;;12573191;28;20097;-85
2022/12/29 16:01:43;;;;;;;5.57;1.40;;;9.10;99.90;;;;;;12566789;28;20045;-84
2022/12/29 16:07:57;;;;;;;4.68;1.10;;;9.20;99.90;;;;;;12541385;28;20098;-85
2022/12/29 16:14:00;;;;;;;3.75;1.10;;;9.30;99.90;;;;;;12599364;28;20066;-85
2022/12/29 16:20:13;;;;;;;7.68;1.35;;;9.40;99.90;;;;;;12575051;28;20178;-85
2022/12/29 16:26:18;;;;;;;10.27;1.50;;;9.30;99.90;;;;;;12589908;28;20135;-84
2022/12/29 16:32:31;;;;;;;5.73;1.30;;;9.40;99.90;;;;;;12587802;28;20040;-86
2022/12/29 16:38:34;;;;;;;5.93;1.25;;;9.40;99.90;;;;;;12587221;28;20036;-85
2022/12/29 16:44:35;;;;;;;7.57;1.75;;;9.40;99.90;;;;;;12576556;28;20619;-86
2022/12/29 16:50:39;;;;;;;6.05;1.45;;;9.40;99.90;;;;;;12594371;28;20049;-85
2022/12/29 16:56:44;;;;;;;4.90;1.60;;;9.30;99.90;;;;;;12595394;28;20052;-86
2022/12/29 17:02:49;;;;;;;7.68;1.23;;;9.20;99.90;;;;;;12590438;28;20051;-85
2022/12/29 17:08:51;;;;;;;7.82;1.27;;;9.20;99.90;;;;;;12576118;28;20048;-86
2022/12/29 17:14:57;;;;;;;5.57;1.05;;;9.20;99.90;;;;;;12598914;28;20402;-85
2022/12/29 17:20:59;;;;;;;6.15;1.20;;;9.10;99.90;;;;;;12553546;28;20044;-85
2022/12/29 17:27:04;;;;;;;5.65;0.93;;;9.00;99.90;;;;;;12568367;28;20104;-87
2022/12/29 17:33:12;;;;;;;4.28;0.98;;;8.60;99.90;;;;;;12585395;28;20044;-87
2022/12/29 17:39:13;;;;;;;3.58;0.82;;;8.10;99.90;;;;;;12568907;28;20049;-86
2022/12/29 17:45:34;;;;;;;1.85;0.70;;;7.80;99.90;;;;;;12576969;28;20045;-87
2022/12/29 17:51:36;;;;;;;6.45;1.17;;;7.70;99.90;;;;;;12561526;28;20085;-86
2022/12/29 17:57:38;;;;;;;5.30;1.50;;;7.60;99.90;;;;;;12577118;28;20086;-86
2022/12/29 18:03:40;;;;;;;6.38;2.20;;;7.60;99.90;;;;;;12571677;28;20185;-86
2022/12/29 18:09:42;;;;;;;5.15;1.98;;;7.70;99.90;;;;;;12571865;28;20055;-86
2022/12/29 18:15:44;;;;;;;5.57;2.08;;;7.70;99.90;;;;;;12566225;28;20044;-87
2022/12/29 18:21:45;;;;;;;6.32;2.03;;;7.80;99.90;;;;;;12562874;28;20044;-86
2022/12/29 18:27:47;;;;;;;7.82;1.90;;;7.80;99.90;;;;;;12569807;28;20101;-88
2022/12/29 18:33:51;;;;;;;6.72;1.92;;;7.80;99.90;;;;;;12581651;28;20048;-86
2022/12/29 18:39:53;;;;;;;4.35;1.38;;;8.00;99.90;;;;;;12566111;28;20089;-86
2022/12/29 18:45:54;;;;;;;6.38;1.60;;;8.00;99.90;;;;;;12557912;28;20041;-87
2022/12/29 18:51:56;;;;;;;5.57;1.30;;;8.00;99.90;;;;;;12561607;28;20079;-86
2022/12/29 18:57:58;;;;;;;7.38;1.20;;;8.00;99.90;;;;;;12588424;28;20408;-87
2022/12/29 19:04:00;;;;;;;4.50;1.05;;;8.00;99.90;;;;;;12564667;28;20048;-86
2022/12/29 19:10:02;;;;;;;7.10;0.88;;;8.00;99.90;;;;;;12561598;28;20060;-87
2022/12/29 19:16:05;;;;;;;5.50;1.20;;;8.00;99.90;;;;;;12566433;28;20057;-86
2022/12/29 19:22:07;;;;;;;2.03;0.75;;;7.90;99.90;;;;;;12571775;28;20056;-85
2022/12/29 19:28:17;;;;;;;4.22;0.50;;;7.80;99.90;;;;;;12586067;28;20089;-85
2022/12/29 19:34:19;;;;;;;2.92;0.75;;;7.80;99.90;;;;;;12569507;28;20435;-85
2022/12/29 19:40:23;;;;;;;4.60;0.80;;;7.70;99.90;;;;;;12572151;28;20057;-86
2022/12/29 19:46:26;;;;;;;4.43;0.82;;;7.70;99.90;;;;;;12590493;28;20059;-86
2022/12/29 19:52:28;;;;;;;3.17;1.65;;;7.60;99.90;;;;;;12569358;28;20162;-85
2022/12/29 19:58:32;;;;;;;7.55;2.38;;;7.50;99.90;;;;;;12594224;28;20167;-85
2022/12/29 20:04:34;;;;;;;5.07;1.00;;;7.60;99.90;;;;;;12575095;28;20073;-85
2022/12/29 20:10:39;;;;;;;4.20;0.90;;;7.50;99.90;;;;;;12593113;28;20144;-85
2022/12/29 20:16:40;;;;;;;5.68;1.17;;;7.50;99.90;;;;;;12579422;28;20480;-86
2022/12/29 20:23:02;;;;;;;3.90;0.80;;;7.60;99.90;;;;;;12576816;28;20487;-86
2022/12/29 20:29:04;;;;;;;4.90;0.95;;;7.60;99.90;;;;;;12577915;28;20127;-85
2022/12/29 20:35:06;;;;;;;5.00;1.20;;;7.50;99.90;;;;;;12590813;28;20051;-85
2022/12/29 20:41:09;;;;;;;6.68;1.38;;;7.50;99.90;;;;;;12568422;28;20420;-85
2022/12/29 20:47:10;;;;;;;6.65;1.75;;;7.50;99.90;;;;;;12590622;28;20091;-85
2022/12/29 20:53:12;;;;;;;11.50;2.28;;;7.60;99.90;;;;;;12585900;28;20049;-84
2022/12/29 20:59:14;;;;;;;7.38;1.75;;;7.60;99.90;;;;;;12564325;28;20151;-84
2022/12/29 21:05:35;;;;;;;9.23;1.83;;;7.60;99.90;;;;;;12585266;28;20040;-84
2022/12/29 21:11:37;;;;;;;12.07;1.58;;;7.60;99.90;;;;;;12597193;28;20047;-86
2022/12/29 21:17:38;;;;;;;6.45;1.70;;;7.60;99.90;;;;;;12592076;28;20049;-85
2022/12/29 21:23:42;;;;;;;8.32;2.33;;;7.50;99.90;;;;;;12573123;28;20131;-84
2022/12/29 21:29:44;;;;;;;12.52;2.35;;;7.40;99.90;;;;;;12573371;28;20036;-85
2022/12/29 21:35:47;;;;;;;8.50;1.83;;;7.50;99.90;;;;;;12575180;28;20045;-86
2022/12/29 21:41:49;;;;;;;8.73;2.30;;;7.50;99.90;;;;;;12575553;28;20068;-85
2022/12/29 22:13:26;;;;;;;11.02;1.90;;;7.40;99.90;;;;;;12581495;28;20056;-85
2022/12/29 22:19:28;;;;;;;8.65;1.90;;;7.30;99.90;;;;;;12579411;28;21210;-85
2022/12/29 22:25:30;;;;;;;11.82;2.47;;;7.30;99.90;;;;;;12590381;28;20043;-85
2022/12/29 22:31:32;;;;;;;14.27;2.25;;;7.40;99.90;;;;;;12580026;28;20263;-86
2022/12/29 22:37:36;;;;;;;11.50;2.20;;;7.40;99.90;;;;;;12580921;28;20044;-85
2022/12/29 22:43:37;;;;;;;15.52;2.35;;;7.40;99.90;;;;;;12594778;28;20091;-85
2022/12/29 22:49:39;;;;;;;12.68;2.33;;;7.40;99.90;;;;;;12618230;28;20044;-86
2022/12/29 22:55:41;;;;;;;11.43;2.33;;;7.40;99.90;;;;;;12625536;28;20044;-86
2022/12/29 23:01:43;;;;;;;13.73;1.75;;;7.30;99.90;;;;;;12623786;28;20051;-86
2022/12/29 23:07:45;;;;;;;13.43;2.28;;;7.40;99.90;;;;;;12650228;28;20048;-85
2022/12/29 23:13:47;;;;;;;11.32;1.95;;;7.40;99.90;;;;;;12658827;28;20044;-85
2022/12/29 23:19:49;;;;;;;11.13;2.05;;;7.40;99.90;;;;;;12650025;28;20303;-85
2022/12/29 23:25:51;;;;;;;9.00;2.38;;;7.40;99.90;;;;;;12641364;28;20040;-85
2022/12/29 23:31:53;;;;;;;9.70;2.05;;;7.30;99.90;;;;;;12638443;28;20041;-85
2022/12/29 23:37:54;;;;;;;10.70;2.00;;;7.30;99.90;;;;;;12588213;28;20041;-84
2022/12/29 23:43:56;;;;;;;10.48;1.98;;;7.30;99.90;;;;;;12584711;28;20070;-85
2022/12/29 23:49:58;;;;;;;10.68;2.03;;;7.20;99.90;;;;;;12601047;28;20110;-85
2022/12/29 23:56:00;;;;;;;12.98;3.45;;;7.20;99.90;;;;;;12594795;28;20131;-85
